This is the latest recevied weather packets stored in our database for station/object W5HKR. If no packets are shown the sender has not sent any weather packets the latest 10 day(s).
| Time | Temp. | Humidity | Pressure | Rain* | Wind** | Luminosity | Snow |
|---|---|---|---|---|---|---|---|
| 1778262500 | 21.67° C | 77% | 983.7 hPa | 0 mm | - | - | - |
| 1778262201 | 18.33° C | 91% | 990.6 hPa | 0 mm | - | - | - |
| 1778261900 | 18.33° C | 91% | 990.6 hPa | 0 mm | - | - | - |
| 1778261631 | 18.33° C | 91% | 990.6 hPa | 0 mm | - | - | - |
| 1778261599 | 18.33° C | 91% | 990.6 hPa | 0 mm | - | - | - |
| 1778261301 | 18.33° C | 91% | 990.6 hPa | 0 mm | - | - | - |
| 1778260999 | 18.33° C | 91% | 990.6 hPa | 0 mm | - | - | - |
| 1778260701 | 18.33° C | 91% | 990.6 hPa | 0 mm | - | - | - |
| 1778260550 | 21.67° C | 76% | 983.8 hPa | 0 mm | - | - | - |
| 1778260400 | 21.67° C | 76% | 983.7 hPa | 0 mm | - | - | - |
| 1778260100 | 21.11° C | 76% | 984 hPa | 0 mm | - | - | - |
| 1778259800 | 21.67° C | 77% | 984.4 hPa | 0 mm | - | - | - |
| 1778259471 | 18.33° C | 91% | 990.6 hPa | 0 mm | - | - | - |
| 1778259202 | 21.11° C | 78% | 983.7 hPa | 0 mm | - | - | - |
| 1778258901 | 18.33° C | 91% | 990.6 hPa | 0 mm | - | - | - |
| 1778258599 | 20.56° C | 76% | 984.4 hPa | 0 mm | - | - | - |
| 1778258391 | 21.11° C | 77% | 984.4 hPa | 0 mm | - | - | - |
| 1778258301 | 20.56° C | 76% | 983.9 hPa | 0 mm | - | - | - |
| 1778258000 | 18.33° C | 91% | 990.6 hPa | 0 mm | - | - | - |
| 1778257701 | 20.56° C | 77% | 984.1 hPa | 0 mm | - | - | - |
| 1778257401 | 18.33° C | 91% | 990.6 hPa | 0 mm | - | - | - |
| 1778257311 | 20.56° C | 76% | 984.4 hPa | 0 mm | - | - | - |
| 1778257100 | 18.33° C | 91% | 990.6 hPa | 0 mm | - | - | - |
| 1778256799 | 18.33° C | 91% | 990.6 hPa | 0 mm | - | - | - |
| 1778256501 | 18.33° C | 91% | 990.6 hPa | 0 mm | - | - | - |
* Rain latest hour (hover to see other rain measurements)
** Current wind speed in m/s (hover to see current wind gust speed)